Test XHTML 1.0 Strict Page for WU-History Testing
Station Historical Data
 
Daily Summary for October 31, 2014 Units:  Both    English   Metric
« Previous Day
Next Day »
Daily Weekly Monthly Yearly Custom
  Current: High: Low: Average:
Temperature: 59.2 °F /  15.1 °C 59.2 °F /  15.1 °C 55.4 °F /  13 °C 57.5 °F /  14.2 °C
Dew Point: 58.6 °F /  14.8 °C 58.9 °F /  14.9 °C 55.1 °F /  12.8 °C 57.4 °F /  14.1 °C
Humidity: 98% 100% 98% 100%
Wind Speed: 3.5mph /  5.6km/h 10.4mph /  16.7km/h - 4.4mph /  7.1km/h
Wind Gust: 3.5mph /  5.6km/h 10.4mph /  16.7km/h - -
WindESE - - South
Pressure: 29.98 in /  1015.1 hPa 30.01 in /  1016.1 hPa 29.97 in /  1014.8 hPa -
Precipitation: 0.00 in /  0 mm      
Historical Graphs
 
 
Weather-Above Climate History
Untitled
Tabular Data for October 31, 2014
Time Temperature Dew Point Pressure Wind Wind Speed Wind Gust Humidity Rainfall Rate (Hourly)
00:01 57.9 °F /  14.4 °C 57.9 °F /  14.4 °C 30.01in /  1016.1hPa SSE 4.6mph /  7.4km/h 4.6mph /  7.4km/h 100% 0.00in /  0cm
00:06 57.9 °F /  14.4 °C 57.9 °F /  14.4 °C 30.01in /  1016.1hPa South 4.6mph /  7.4km/h 4.6mph /  7.4km/h 100% 0.00in /  0cm
00:11 57.9 °F /  14.4 °C 57.6 °F /  14.2 °C 30.01in /  1016.1hPa SE 3.5mph /  5.6km/h 3.5mph /  5.6km/h 99% 0.00in /  0cm
00:16 57.9 °F /  14.4 °C 57.6 °F /  14.2 °C 30.01in /  1016.1hPa South 3.9mph /  6.3km/h 3.9mph /  6.3km/h 99% 0.00in /  0cm
00:21 58.1 °F /  14.5 °C 57.8 °F /  14.3 °C 30.01in /  1016.1hPa SSE 3.5mph /  5.6km/h 3.5mph /  5.6km/h 99% 0.00in /  0cm
00:26 57.9 °F /  14.4 °C 57.6 °F /  14.2 °C 30.00in /  1015.8hPa SSE 2.3mph /  3.7km/h 2.3mph /  3.7km/h 99% 0.00in /  0cm
00:31 57.9 °F /  14.4 °C 57.6 °F /  14.2 °C 30.00in /  1015.8hPa South 4.6mph /  7.4km/h 4.6mph /  7.4km/h 99% 0.00in /  0cm
00:36 58.1 °F /  14.5 °C 57.8 °F /  14.3 °C 30.01in /  1016.1hPa South 2.3mph /  3.7km/h 2.3mph /  3.7km/h 99% 0.00in /  0cm
00:41 58.1 °F /  14.5 °C 57.8 °F /  14.3 °C 30.01in /  1016.1hPa SSE 4.6mph /  7.4km/h 4.6mph /  7.4km/h 99% 0.00in /  0cm
00:46 58.1 °F /  14.5 °C 57.8 °F /  14.3 °C 30.00in /  1015.8hPa Calm     99% 0.00in /  0cm
00:51 58.1 °F /  14.5 °C 57.8 °F /  14.3 °C 30.00in /  1015.8hPa South 3.5mph /  5.6km/h 3.5mph /  5.6km/h 99% 0.00in /  0cm
00:56 58.1 °F /  14.5 °C 57.8 °F /  14.3 °C 30.00in /  1015.8hPa SSW 3.5mph /  5.6km/h 3.5mph /  5.6km/h 99% 0.00in /  0cm
01:01 58.1 °F /  14.5 °C 57.8 °F /  14.3 °C 30.00in /  1015.8hPa Calm     99% 0.00in /  0cm
01:06 57.9 °F /  14.4 °C 57.6 °F /  14.2 °C 30.00in /  1015.8hPa South 2.3mph /  3.7km/h 2.3mph /  3.7km/h 99% 0.00in /  0cm
01:11 58.1 °F /  14.5 °C 57.8 °F /  14.3 °C 30.00in /  1015.8hPa SSW 1.2mph /  1.9km/h 1.2mph /  1.9km/h 99% 0.00in /  0cm
01:16 58.1 °F /  14.5 °C 57.8 °F /  14.3 °C 30.00in /  1015.8hPa Calm     99% 0.00in /  0cm
01:21 58.3 °F /  14.6 °C 58.0 °F /  14.4 °C 30.00in /  1015.8hPa Calm   0.2mph /  0.3km/h 99% 0.00in /  0cm
01:26 58.1 °F /  14.5 °C 57.8 °F /  14.3 °C 30.00in /  1015.8hPa ESE 2.3mph /  3.7km/h 2.3mph /  3.7km/h 99% 0.00in /  0cm
01:31 58.3 °F /  14.6 °C 57.7 °F /  14.3 °C 30.00in /  1015.8hPa SSE 5.8mph /  9.3km/h 5.8mph /  9.3km/h 98% 0.00in /  0cm
01:36 58.3 °F /  14.6 °C 58.0 °F /  14.4 °C 30.00in /  1015.8hPa West 6.9mph /  11.1km/h 6.9mph /  11.1km/h 99% 0.00in /  0cm
01:41 58.5 °F /  14.7 °C 58.2 °F /  14.6 °C 30.00in /  1015.8hPa WSW 3.5mph /  5.6km/h 3.5mph /  5.6km/h 99% 0.00in /  0cm
01:46 58.5 °F /  14.7 °C 58.2 °F /  14.6 °C 30.00in /  1015.8hPa South 4.6mph /  7.4km/h 4.6mph /  7.4km/h 99% 0.00in /  0cm
01:51 58.5 °F /  14.7 °C 58.2 °F /  14.6 °C 30.00in /  1015.8hPa SW 4.6mph /  7.4km/h 4.6mph /  7.4km/h 99% 0.00in /  0cm
01:56 58.5 °F /  14.7 °C 58.2 °F /  14.6 °C 29.99in /  1015.5hPa SSE 5.8mph /  9.3km/h 5.8mph /  9.3km/h 99% 0.00in /  0cm
02:01 58.5 °F /  14.7 °C 58.2 °F /  14.6 °C 29.99in /  1015.5hPa SSE 6.1mph /  9.8km/h 6.1mph /  9.8km/h 99% 0.00in /  0cm
02:06 58.5 °F /  14.7 °C 58.2 °F /  14.6 °C 29.99in /  1015.5hPa NE 4.6mph /  7.4km/h 4.6mph /  7.4km/h 99% 0.00in /  0cm
02:11 57.9 °F /  14.4 °C 57.6 °F /  14.2 °C 29.99in /  1015.5hPa SSE 1.4mph /  2.3km/h 1.4mph /  2.3km/h 99% 0.00in /  0cm
02:16 57.6 °F /  14.2 °C 57.3 °F /  14.1 °C 29.99in /  1015.5hPa SE 3.5mph /  5.6km/h 3.5mph /  5.6km/h 99% 0.00in /  0cm
02:21 57.6 °F /  14.2 °C 57.3 °F /  14.1 °C 29.99in /  1015.5hPa South 2.3mph /  3.7km/h 2.3mph /  3.7km/h 99% 0.00in /  0cm
02:26 57.2 °F /  14 °C 56.9 °F /  13.8 °C 29.99in /  1015.5hPa South 5.8mph /  9.3km/h 5.8mph /  9.3km/h 99% 0.00in /  0cm
02:31 57.2 °F /  14 °C 56.9 °F /  13.8 °C 29.99in /  1015.5hPa South 4.6mph /  7.4km/h 4.6mph /  7.4km/h 99% 0.00in /  0cm
02:36 57.0 °F /  13.9 °C 56.7 °F /  13.7 °C 29.99in /  1015.5hPa South 4.6mph /  7.4km/h 4.6mph /  7.4km/h 99% 0.00in /  0cm
02:41 56.7 °F /  13.7 °C 56.7 °F /  13.7 °C 29.99in /  1015.5hPa South 1.2mph /  1.9km/h 1.2mph /  1.9km/h 100% 0.00in /  0cm
02:46 56.8 °F /  13.8 °C 56.6 °F /  13.7 °C 29.99in /  1015.5hPa WNW 4.6mph /  7.4km/h 4.6mph /  7.4km/h 99% 0.00in /  0cm
02:51 56.3 °F /  13.5 °C 56.3 °F /  13.5 °C 29.99in /  1015.5hPa SSW 1.2mph /  1.9km/h 1.2mph /  1.9km/h 100% 0.00in /  0cm
02:56 56.3 °F /  13.5 °C 56.0 °F /  13.3 °C 29.99in /  1015.5hPa South 5.8mph /  9.3km/h 5.8mph /  9.3km/h 99% 0.00in /  0cm
03:01 55.8 °F /  13.2 °C 55.8 °F /  13.2 °C 29.99in /  1015.5hPa SE 2.3mph /  3.7km/h 2.3mph /  3.7km/h 100% 0.00in /  0cm
03:06 55.8 °F /  13.2 °C 55.8 °F /  13.2 °C 29.98in /  1015.1hPa SE 5.6mph /  9km/h 5.6mph /  9km/h 100% 0.00in /  0cm
03:11 55.6 °F /  13.1 °C 55.3 °F /  12.9 °C 29.98in /  1015.1hPa Calm   0.1mph /  0.2km/h 99% 0.00in /  0cm
03:16 55.6 °F /  13.1 °C 55.6 °F /  13.1 °C 29.99in /  1015.5hPa SSW 3.5mph /  5.6km/h   100% 0.00in /  0cm
03:21 55.4 °F /  13 °C 55.1 °F /  12.8 °C 29.98in /  1015.1hPa West 5.8mph /  9.3km/h 5.8mph /  9.3km/h 99% 0.00in /  0cm
03:26 55.4 °F /  13 °C 55.4 °F /  13 °C 29.98in /  1015.1hPa SSE 4.6mph /  7.4km/h 4.6mph /  7.4km/h 100% 0.00in /  0cm
03:31 55.8 °F /  13.2 °C 55.8 °F /  13.2 °C 29.98in /  1015.1hPa SSE 4.6mph /  7.4km/h 4.6mph /  7.4km/h 100% 0.00in /  0cm
03:36 55.9 °F /  13.3 °C 55.9 °F /  13.3 °C 29.97in /  1014.8hPa SSE 4.6mph /  7.4km/h 4.6mph /  7.4km/h 100% 0.00in /  0cm
03:41 56.1 °F /  13.4 °C 56.1 °F /  13.4 °C 29.97in /  1014.8hPa SSE 4.6mph /  7.4km/h 4.6mph /  7.4km/h 100% 0.00in /  0cm
03:46 56.1 °F /  13.4 °C 56.1 °F /  13.4 °C 29.98in /  1015.1hPa SE 5.1mph /  8.2km/h 5.1mph /  8.2km/h 100% 0.00in /  0cm
03:51 56.3 °F /  13.5 °C 56.3 °F /  13.5 °C 29.97in /  1014.8hPa SSE 3.8mph /  6.1km/h 3.8mph /  6.1km/h 100% 0.00in /  0cm
03:56 56.1 °F /  13.4 °C 56.1 °F /  13.4 °C 29.97in /  1014.8hPa SSE 2.5mph /  4km/h 2.5mph /  4km/h 100% 0.00in /  0cm
04:01 56.3 °F /  13.5 °C 56.3 °F /  13.5 °C 29.97in /  1014.8hPa SSW 4.6mph /  7.4km/h 4.6mph /  7.4km/h 100% 0.00in /  0cm
04:07 56.3 °F /  13.5 °C 56.3 °F /  13.5 °C 29.98in /  1015.1hPa SE 4.6mph /  7.4km/h 4.6mph /  7.4km/h 100% 0.00in /  0cm
04:12 56.3 °F /  13.5 °C 56.3 °F /  13.5 °C 29.98in /  1015.1hPa SE 5.8mph /  9.3km/h 5.8mph /  9.3km/h 100% 0.00in /  0cm
04:17 56.1 °F /  13.4 °C 56.1 °F /  13.4 °C 29.98in /  1015.1hPa SSE 5.8mph /  9.3km/h 5.8mph /  9.3km/h 100% 0.00in /  0cm
04:22 56.3 °F /  13.5 °C 56.3 °F /  13.5 °C 29.98in /  1015.1hPa SE 5.8mph /  9.3km/h 5.8mph /  9.3km/h 100% 0.00in /  0cm
04:27 56.5 °F /  13.6 °C 56.5 °F /  13.6 °C 29.98in /  1015.1hPa SSE 4.6mph /  7.4km/h 4.6mph /  7.4km/h 100% 0.00in /  0cm
04:32 56.3 °F /  13.5 °C 56.3 °F /  13.5 °C 29.97in /  1014.8hPa SE 5.8mph /  9.3km/h 5.8mph /  9.3km/h 100% 0.00in /  0cm
04:37 56.3 °F /  13.5 °C 56.3 °F /  13.5 °C 29.97in /  1014.8hPa South 5.8mph /  9.3km/h 5.8mph /  9.3km/h 100% 0.00in /  0cm
04:42 56.3 °F /  13.5 °C 56.3 °F /  13.5 °C 29.97in /  1014.8hPa South 4.6mph /  7.4km/h 4.6mph /  7.4km/h 100% 0.00in /  0cm
04:47 56.3 °F /  13.5 °C 56.3 °F /  13.5 °C 29.97in /  1014.8hPa SE 3.5mph /  5.6km/h 3.5mph /  5.6km/h 100% 0.00in /  0cm
04:52 56.7 °F /  13.7 °C 56.7 °F /  13.7 °C 29.97in /  1014.8hPa SSW 5.8mph /  9.3km/h 5.8mph /  9.3km/h 100% 0.00in /  0cm
04:57 56.7 °F /  13.7 °C 56.7 °F /  13.7 °C 29.97in /  1014.8hPa SSE 4.6mph /  7.4km/h 4.6mph /  7.4km/h 100% 0.00in /  0cm
05:02 56.7 °F /  13.7 °C 56.7 °F /  13.7 °C 29.97in /  1014.8hPa South 5.8mph /  9.3km/h 5.8mph /  9.3km/h 100% 0.00in /  0cm
05:07 56.8 °F /  13.8 °C 56.8 °F /  13.8 °C 29.97in /  1014.8hPa West 5.1mph /  8.2km/h 5.1mph /  8.2km/h 100% 0.00in /  0cm
05:12 56.8 °F /  13.8 °C 56.8 °F /  13.8 °C 29.97in /  1014.8hPa SSE 4.6mph /  7.4km/h 4.6mph /  7.4km/h 100% 0.00in /  0cm
05:17 57.2 °F /  14 °C 57.2 °F /  14 °C 29.97in /  1014.8hPa SSW 10.4mph /  16.7km/h 10.4mph /  16.7km/h 100% 0.00in /  0cm
05:22 57.6 °F /  14.2 °C 57.6 °F /  14.2 °C 29.97in /  1014.8hPa South 8.1mph /  13km/h 8.1mph /  13km/h 100% 0.00in /  0cm
05:27 57.6 °F /  14.2 °C 57.6 °F /  14.2 °C 29.97in /  1014.8hPa SE 4.6mph /  7.4km/h 4.6mph /  7.4km/h 100% 0.00in /  0cm
05:32 57.7 °F /  14.3 °C 57.7 °F /  14.3 °C 29.97in /  1014.8hPa SE 6.9mph /  11.1km/h 6.9mph /  11.1km/h 100% 0.00in /  0cm
05:37 57.9 °F /  14.4 °C 57.9 °F /  14.4 °C 29.97in /  1014.8hPa South 4.6mph /  7.4km/h 4.6mph /  7.4km/h 100% 0.00in /  0cm
05:42 57.9 °F /  14.4 °C 57.9 °F /  14.4 °C 29.97in /  1014.8hPa East 5.8mph /  9.3km/h 5.8mph /  9.3km/h 100% 0.00in /  0cm
05:47 57.9 °F /  14.4 °C 57.9 °F /  14.4 °C 29.97in /  1014.8hPa South 6.9mph /  11.1km/h 6.9mph /  11.1km/h 100% 0.00in /  0cm
05:52 57.9 °F /  14.4 °C 57.9 °F /  14.4 °C 29.97in /  1014.8hPa South 5.8mph /  9.3km/h 5.8mph /  9.3km/h 100% 0.00in /  0cm
05:57 57.9 °F /  14.4 °C 57.9 °F /  14.4 °C 29.97in /  1014.8hPa WNW 5.8mph /  9.3km/h 5.8mph /  9.3km/h 100% 0.00in /  0cm
06:02 57.9 °F /  14.4 °C 57.9 °F /  14.4 °C 29.97in /  1014.8hPa SSW 4.6mph /  7.4km/h 4.6mph /  7.4km/h 100% 0.00in /  0cm
06:07 57.9 °F /  14.4 °C 57.9 °F /  14.4 °C 29.97in /  1014.8hPa SSW 1.2mph /  1.9km/h   100% 0.00in /  0cm
06:12 57.9 °F /  14.4 °C 57.9 °F /  14.4 °C 29.97in /  1014.8hPa SE 3.5mph /  5.6km/h 3.5mph /  5.6km/h 100% 0.00in /  0cm
06:17 57.9 °F /  14.4 °C 57.9 °F /  14.4 °C 29.97in /  1014.8hPa South 4.6mph /  7.4km/h 4.6mph /  7.4km/h 100% 0.00in /  0cm
06:22 57.9 °F /  14.4 °C 57.9 °F /  14.4 °C 29.97in /  1014.8hPa SSW 5.8mph /  9.3km/h 5.8mph /  9.3km/h 100% 0.00in /  0cm
06:27 57.9 °F /  14.4 °C 57.9 °F /  14.4 °C 29.97in /  1014.8hPa SSE 3.8mph /  6.1km/h 3.8mph /  6.1km/h 100% 0.00in /  0cm
06:32 57.9 °F /  14.4 °C 57.9 °F /  14.4 °C 29.97in /  1014.8hPa South 3.5mph /  5.6km/h 3.5mph /  5.6km/h 100% 0.00in /  0cm
06:37 57.9 °F /  14.4 °C 57.9 °F /  14.4 °C 29.97in /  1014.8hPa SE 4.6mph /  7.4km/h 4.6mph /  7.4km/h 100% 0.00in /  0cm
06:42 57.9 °F /  14.4 °C 57.9 °F /  14.4 °C 29.97in /  1014.8hPa SSE 5.1mph /  8.2km/h 5.1mph /  8.2km/h 100% 0.00in /  0cm
06:47 58.1 °F /  14.5 °C 58.1 °F /  14.5 °C 29.97in /  1014.8hPa SSE 6.9mph /  11.1km/h 6.9mph /  11.1km/h 100% 0.00in /  0cm
06:52 58.1 °F /  14.5 °C 58.1 °F /  14.5 °C 29.97in /  1014.8hPa South 6.1mph /  9.8km/h 6.1mph /  9.8km/h 100% 0.00in /  0cm
06:57 58.1 °F /  14.5 °C 58.1 °F /  14.5 °C 29.97in /  1014.8hPa SSW 4.6mph /  7.4km/h 4.6mph /  7.4km/h 100% 0.00in /  0cm
07:02 58.1 °F /  14.5 °C 58.1 °F /  14.5 °C 29.97in /  1014.8hPa SSW 5.8mph /  9.3km/h 5.8mph /  9.3km/h 100% 0.00in /  0cm
07:07 58.1 °F /  14.5 °C 58.1 °F /  14.5 °C 29.97in /  1014.8hPa SSE 4.6mph /  7.4km/h 4.6mph /  7.4km/h 100% 0.00in /  0cm
07:12 57.9 °F /  14.4 °C 57.9 °F /  14.4 °C 29.97in /  1014.8hPa SSE 4.6mph /  7.4km/h 4.6mph /  7.4km/h 100% 0.00in /  0cm
07:17 57.9 °F /  14.4 °C 57.9 °F /  14.4 °C 29.97in /  1014.8hPa South 6.9mph /  11.1km/h 6.9mph /  11.1km/h 100% 0.00in /  0cm
07:22 58.1 °F /  14.5 °C 58.1 °F /  14.5 °C 29.97in /  1014.8hPa SSE 5.8mph /  9.3km/h 5.8mph /  9.3km/h 100% 0.00in /  0cm
07:27 58.1 °F /  14.5 °C 58.1 °F /  14.5 °C 29.97in /  1014.8hPa SSE 3.5mph /  5.6km/h 3.5mph /  5.6km/h 100% 0.00in /  0cm
07:32 57.9 °F /  14.4 °C 57.9 °F /  14.4 °C 29.97in /  1014.8hPa WSW 6.9mph /  11.1km/h 6.9mph /  11.1km/h 100% 0.00in /  0cm
07:37 57.9 °F /  14.4 °C 57.9 °F /  14.4 °C 29.97in /  1014.8hPa SW 5.8mph /  9.3km/h 5.8mph /  9.3km/h 100% 0.00in /  0cm
07:42 57.9 °F /  14.4 °C 57.9 °F /  14.4 °C 29.97in /  1014.8hPa SE 4.6mph /  7.4km/h 4.6mph /  7.4km/h 100% 0.00in /  0cm
07:47 57.9 °F /  14.4 °C 57.9 °F /  14.4 °C 29.97in /  1014.8hPa SSE 4.7mph /  7.6km/h 4.7mph /  7.6km/h 100% 0.00in /  0cm
07:52 57.9 °F /  14.4 °C 57.9 °F /  14.4 °C 29.97in /  1014.8hPa SSE 6.9mph /  11.1km/h 6.9mph /  11.1km/h 100% 0.00in /  0cm
07:57 58.1 °F /  14.5 °C 57.8 °F /  14.3 °C 29.98in /  1015.1hPa South 3.9mph /  6.3km/h 3.9mph /  6.3km/h 99% 0.00in /  0cm
08:02 58.1 °F /  14.5 °C 58.1 °F /  14.5 °C 29.98in /  1015.1hPa SSE 3.2mph /  5.1km/h 3.2mph /  5.1km/h 100% 0.00in /  0cm
08:07 58.5 °F /  14.7 °C 58.5 °F /  14.7 °C 29.98in /  1015.1hPa SW 2.3mph /  3.7km/h 2.3mph /  3.7km/h 100% 0.00in /  0cm
08:12 58.5 °F /  14.7 °C 58.5 °F /  14.7 °C 29.98in /  1015.1hPa South 5.6mph /  9km/h 5.6mph /  9km/h 100% 0.00in /  0cm
08:17 58.5 °F /  14.7 °C 58.5 °F /  14.7 °C 29.98in /  1015.1hPa SSW 4.7mph /  7.6km/h 4.7mph /  7.6km/h 100% 0.00in /  0cm
08:22 58.6 °F /  14.8 °C 58.4 °F /  14.7 °C 29.98in /  1015.1hPa SE 5.8mph /  9.3km/h 5.8mph /  9.3km/h 99% 0.00in /  0cm
08:27 58.8 °F /  14.9 °C 58.5 °F /  14.7 °C 29.98in /  1015.1hPa SSE 3.5mph /  5.6km/h 3.5mph /  5.6km/h 99% 0.00in /  0cm
08:32 58.8 °F /  14.9 °C 58.5 °F /  14.7 °C 29.98in /  1015.1hPa WSW 4.6mph /  7.4km/h 4.6mph /  7.4km/h 99% 0.00in /  0cm
08:37 58.8 °F /  14.9 °C 58.5 °F /  14.7 °C 29.98in /  1015.1hPa SSE 4.6mph /  7.4km/h 4.6mph /  7.4km/h 99% 0.00in /  0cm
08:42 59.0 °F /  15 °C 58.7 °F /  14.8 °C 29.98in /  1015.1hPa SW 5.8mph /  9.3km/h 5.8mph /  9.3km/h 99% 0.00in /  0cm
08:47 59.2 °F /  15.1 °C 58.9 °F /  14.9 °C 29.98in /  1015.1hPa ESE 4.6mph /  7.4km/h 4.6mph /  7.4km/h 99% 0.00in /  0cm
08:52 59.2 °F /  15.1 °C 58.6 °F /  14.8 °C 29.98in /  1015.1hPa ESE 3.5mph /  5.6km/h 3.5mph /  5.6km/h 98% 0.00in /  0cm
Wether-Above
Compliments of Weather Underground
Welcome to Weather-Above
Cheddleton weather station supplies various organisations with data from our weather station one of them is the weather Underground this information displayed here is coming from the weather Underground server 

If any information is used please acknowledge the source to www weather-above.com or weather Underground